LiveATC.Net - Listen to live air traffic control over the Internet!


ICAO: CYMJ  IATA: YMJ   Airport: Moose Jaw/Air Vice Marshal C.M. McEwen Airport
City: Moose Jaw   State/Province: Saskatchewan
Country: Canada   Continent: North America
CYMJ METAR Weather: CYMJ 061000Z 11005KT 1/8SM FG VV002 14/14 A2996 RMK FG8 FST OBS SLP147
CYMJ Flight Activity (FlightAware)

CYMJ Radio
Feed Status: DOWN
Last heard on: 2022-05-18 22:53:05 (48 days 12 hours 20 minutes ago)
Archive Access: CYMJ Radio
FacilityFrequency
Moose Jaw Arrival227.600
Moose Jaw Departure234.400
Moose Jaw Ground275.800
Moose Jaw Tower (Inner)295.600
Moose Jaw Tower (Outer)310.800

NOTICE

Unauthorized use prohibited. See LiveATC.net Terms of Service


Airport/ARTCC Code
Frequency Search
(e.g., 124.400, 128.75)
Site-wide search
 


Browse Feeds
Top 50 Feeds
HF Oceanic Feeds
Coverage Map
Bad Weather Areas

LiveATC FAQ
Offer LiveATC feed
Contact LiveATC.net
Press Inquiries

LiveATC on iPhone
LiveATC on Android

LiveATC Mobile
(Mobile browser)

ATC Audio Archives
Interesting Recordings

LiveATC Forums


Home Page
About LiveATC.net


Terms of Use
Privacy Policy

AIRMETs/SIGMETs

FAA Airport Status
NAS Status
Arrival Demand


Server Software By:
Icecast.org
Liquidsoap